Tiempo atmosférico en la estación meteorológica de Miguelañez, Segovia (870 m.)



Fecha
DESCASC
Temp. máxima en grados centígrados (hora)
DESCASC
Temp. mínima en grados centígrados (hora)
DESCASC
Temp. media en grados centígrados
DESCASC
Racha de viento máxima en m/sg (hora)
DESCASC
Velocidad máxima media en intervalos de 10 minutos(hora)
DESCASC
Precipitaciones diarias en mm
DESCASC
Precipitaciones de 00:00 a 06:00 en mm
DESCASC
Precipitaciones de 06:00 a 12:00 en mm
DESCASC
Precipitaciones de 12:00 a 18:00 en mm
DESCASC
Precipitaciones de 18:00 a 24:00 en mm
DESCASC
26-11-2020 12.1 (12:10) 7.9 (23:59) 10 13.61 (07:00) 10.56 (12:10) 2 0 0 0 2
25-11-2020 12.4 (13:50) 1.5 (06:10) 6.9 14.72 (15:00) 11.39 (14:10) 0.2 0 0 0.2 0
24-11-2020 13 (14:40) 1 (06:10) 7 5.83 (02:40) 4.72 (02:20) 0 0 0 0 0
23-11-2020 14.6 (16:40) 0.3 (07:30) 7.5 6.11 (03:00) 4.17 (00:50) 0 0 0 0 0
22-11-2020 14.7 (16:10) 1.3 (00:00) 8 5.83 (03:50) 4.17 (01:20) 0 0 0 0 0
21-11-2020 15.5 (16:40) -1 (-00:0) 7.3 6.11 (03:00) 3.89 (02:40) 0 0 0 0 0
20-11-2020 11.9 (16:10) 2.2 (00:00) 7 5 (22:30) 3.61 (22:40) 0 0 0 0 0
19-11-2020 17.9 (15:10) 4.5 (00:00) 11.2 6.11 (15:00) 4.44 (17:00) 0 0 0 0 0
18-11-2020 21.2 (15:20) 5.9 (00:00) 13.6 5.83 (07:00) 4.72 (00:10) 0 0 0 0 0
17-11-2020 20.1 (16:00) 3.5 (00:00) 11.8 5.83 (23:50) 5.28 (23:59) 0 0 0 0 0
16-11-2020 15.1 (16:10) 7.1 (00:00) 11.1 7.5 (02:20) 5.56 (02:30) 0.2 0.2 0 0 0
15-11-2020 17.2 (13:30) 10.4 (00:00) 13.8 14.17 (13:20) 10.28 (14:50) 0 0 0 0 0
14-11-2020 16.5 (15:10) 8.2 (00:00) 12.3 8.33 (11:40) 6.67 (11:40) 0.4 0 0 0 0.4
13-11-2020 15.3 (15:20) 5.5 (00:00) 10.4 5.28 (23:00) 3.61 (22:40) 0 0 0 0 0
12-11-2020 14.6 (15:00) 6.1 (00:00) 10.4 5.28 (00:40) 4.17 (00:30) 0 0 0 0 0
11-11-2020 14.1 (14:00) 3.6 (00:00) 8.9 7.22 (14:10) 5.56 (14:20) 0.2 0.2 0 0 0
10-11-2020 13 (15:30) 4.9 (00:00) 9 3.89 (16:30) 2.78 (03:30) 0 0 0 0 0
09-11-2020 14.6 (16:10) 6.5 (00:00) 10.6 8.33 (02:00) 6.67 (02:00) 0.2 0.2 0 0 0
08-11-2020 15.4 (15:10) 6.3 (00:00) 10.8 15.83 (11:00) 10.83 (12:30) 0.4 0 0 0 0.4
07-11-2020 14.1 (16:10) 8.3 (00:00) 11.2 19.44 (01:20) 14.17 (01:20) 0.2 0 0.2 0 0
06-11-2020 18.1 (15:00) 10.4 (00:00) 14.3 20.83 (20:40) 15.56 (13:30) 3.2 0 0 0 3.2
05-11-2020 13.7 (13:30) 6.5 (00:00) 10.1 18.61 (12:10) 13.33 (12:10) 0 0 0 0 0
04-11-2020 10 (15:10) 4.1 (00:00) 7 9.44 (23:40) 7.5 (23:50) 2 0 0 2 0
03-11-2020 14.7 (01:20) 5.5 (00:00) 10.1 9.17 (07:10) 5.83 (21:30) 5.8 5.4 0.4 0 0
02-11-2020 17 (15:10) 11.9 (00:00) 14.4 4.72 (13:00) 3.06 (11:30) 0 0 0 0 0
01-11-2020 20.7 (16:00) 6.9 (00:00) 13.8 5.56 (03:30) 4.72 (03:30) 0 0 0 0 0
31-10-2020 20.1 (16:10) 6.9 (00:00) 13.5 6.67 (07:00) 4.72 (02:30) 0 0 0 0 0
30-10-2020 20.6 (16:30) 5.8 (00:00) 13.2 6.39 (22:00) 5 (22:00) 0 0 0 0 0

Gráficas

Temp. máximas Temp. mínimas Temp. medias Precipitaciones Rachas de viento máximas Velocidades máximas media en intervalos de 10 minutos

Datos horarios

Fecha y hora oficial Temperatura (ºC) Velocidad del viento (km/h) Dirección del viento Racha (km/h) Dirección de racha Precipitación (mm) Presión (hPa) Tendencia (hPa) Humedad (%)
2020-11-28 23:00:00 -- -- -- -- -- -- -- -- --
2020-11-28 22:00:00 6.9 9 Sur 21 Sur 0 -- -- 81
2020-11-28 21:00:00 8.4 14 Sur 25 Sur 0 -- -- 76
2020-11-28 20:00:00 8.9 18 Sur 24 Sur 0 -- -- 74
2020-11-28 19:00:00 9.5 10 Sur 17 Sur 0 -- -- 75
2020-11-28 18:00:00 9.3 5 Sudoeste 7 Sudoeste 0 -- -- 81
2020-11-28 17:00:00 9.9 5 Sudoeste 9 Sudoeste 0 -- -- 79
2020-11-28 16:00:00 10.4 6 Oeste 17 Oeste 0 -- -- 76
2020-11-28 15:00:00 10.5 8 Oeste 22 Oeste 0 -- -- 74
2020-11-28 14:00:00 10.4 14 Oeste 21 Oeste 0 -- -- 76
2020-11-28 13:00:00 9.7 13 Oeste 19 Oeste 0 -- -- 82
2020-11-28 12:00:00 7.8 12 Sudoeste 19 Sudoeste 0 -- -- 90
2020-11-28 11:00:00 6.8 7 Sudoeste 12 Sudoeste 0 -- -- 93
2020-11-28 10:00:00 6.1 3 Sudeste 5 Oeste 0 -- -- 97
2020-11-28 09:00:00 3.5 2 Oeste 11 Este 0 -- -- 95
2020-11-28 08:00:00 4.3 5 Este 10 Este 0 -- -- 93
2020-11-28 07:00:00 5.2 5 Sudeste 17 Sudeste 0 -- -- 94
2020-11-28 06:00:00 4.2 8 Sudeste 13 Sudeste 0 -- -- 95
2020-11-28 05:00:00 4 6 Sudoeste 10 Oeste 0 -- -- 95
2020-11-28 04:00:00 3.8 0 Calma 10 Oeste 0 -- -- 94
2020-11-28 03:00:00 4.1 0 Calma 8 Nordeste 0 -- -- 93
2020-11-28 02:00:00 3.7 4 Este 8 Este 0 -- -- 93
2020-11-28 01:00:00 4.3 8 Sudeste 9 Sudeste 0 -- -- 90
2020-11-28 00:00:00 4.7 2 Nordeste 15 Nordeste 0 -- -- 90
2020-11-27 23:00:00 6.6 4 Norte 8 Norte 0 -- -- 86
2020-11-27 22:00:00 7.2 4 Noroeste 10 Norte 0 -- -- 82
2020-11-27 21:00:00 8.1 0 Calma 6 Este 0 -- -- 80
2020-11-27 20:00:00 8.8 5 Norte 7 Norte 0 -- -- 78
2020-11-27 19:00:00 8.3 3 Este 14 Este 0 -- -- 80
2020-11-27 18:00:00 9.2 13 Este 27 Este 0 -- -- 74
2020-11-27 17:00:00 10.7 22 Este 33 Este 0 -- -- 68
2020-11-27 16:00:00 11.7 24 Este 32 Nordeste 0 -- -- 65
2020-11-27 15:00:00 11.8 13 Nordeste 24 Este 0 -- -- 67
2020-11-27 14:00:00 10.2 17 Este 48 Este 0 -- -- 72
2020-11-27 13:00:00 10.4 31 Este 41 Este 0 -- -- 73
2020-11-27 12:00:00 9.8 32 Este 45 Este 0 -- -- 75
2020-11-27 11:00:00 9.9 21 Este 33 Nordeste 0 -- -- 76
2020-11-27 10:00:00 7.1 3 Noroeste 21 Nordeste 0 -- -- 89
2020-11-27 09:00:00 7.5 18 Nordeste 22 Nordeste 0 -- -- 85
2020-11-27 08:00:00 6.2 10 Nordeste 31 Este 0 -- -- 90
2020-11-27 07:00:00 7 19 Nordeste 24 Nordeste 0 -- -- 87
2020-11-27 06:00:00 6.6 9 Norte 24 Nordeste 0 -- -- 87
2020-11-27 05:00:00 7.2 18 Nordeste 22 Nordeste 0 -- -- 86
2020-11-27 04:00:00 7.6 7 Norte 21 Nordeste 0 -- -- 84
2020-11-27 03:00:00 7 3 Este 10 Norte 0 -- -- 90
2020-11-27 02:00:00 7.7 4 Norte 16 Norte 0 -- -- 89
2020-11-27 01:00:00 7.6 9 Nordeste 18 Nordeste 0 -- -- 93
2020-11-27 00:00:00 7.9 4 Norte 20 Oeste 1 -- -- 93
2020-11-26 23:00:00 9.1 6 Oeste 19 Este 0 -- -- 86
2020-11-26 22:00:00 9.9 20 Este 36 Este 0 -- -- 81
2020-11-26 21:00:00 10.2 28 Este 39 Este 0.2 -- -- 78
2020-11-26 20:00:00 9.8 18 Este 28 Este 0.6 -- -- 82
2020-11-26 19:00:00 9.9 28 Este 42 Este 0.2 -- -- 83
2020-11-26 18:00:00 10.3 23 Este 31 Este 0 -- -- 76
2020-11-26 17:00:00 11.7 22 Este 35 Este 0 -- -- 68
2020-11-26 16:00:00 11.8 28 Este 44 Este 0 -- -- 65
2020-11-26 15:00:00 11.8 27 Este 48 Este 0 -- -- 65
2020-11-26 14:00:00 11.9 32 Sudeste 46 Este 0 -- -- 65
2020-11-26 13:00:00 11.9 32 Sudeste 48 Este 0 -- -- 62
2020-11-26 12:00:00 11.9 35 Este 45 Sudeste 0 -- -- 65
2020-11-26 11:00:00 10.7 21 Este 48 Sudeste 0 -- -- 69
2020-11-26 10:00:00 9.9 24 Sudeste 38 Sudeste 0 -- -- 68
2020-11-26 09:00:00 9 13 Sudeste 32 Sudeste 0 -- -- 74
2020-11-26 08:00:00 8.9 22 Sudeste 42 Sudeste 0 -- -- 74
2020-11-26 07:00:00 9.1 31 Sudeste 49 Sudeste 0 -- -- 73
2020-11-26 06:00:00 9 26 Sudeste 37 Sudeste 0 -- -- 77
2020-11-26 05:00:00 8.4 4 Este 16 Este 0 -- -- 78
2020-11-26 04:00:00 8.4 5 Este 12 Este 0 -- -- 79
2020-11-26 03:00:00 8.5 3 Sudeste 28 Sudeste 0 -- -- 78
2020-11-26 02:00:00 10 23 Sudeste 36 Sudeste 0 -- -- 72
2020-11-26 01:00:00 9.8 18 Sudeste 40 Sur 0 -- -- 75
2020-11-26 00:00:00 9.5 10 Sudeste 27 Sur 0 -- -- 76
2020-11-25 23:00:00 7.3 12 Sudeste 27 Sudeste 0 -- -- 83
2020-11-25 22:00:00 8.4 13 Sudeste 20 Sudeste 0 -- -- 77
2020-11-25 21:00:00 8.4 8 Este 20 Sudeste 0 -- -- 77
2020-11-25 20:00:00 9.2 12 Este 20 Este 0 -- -- 75
2020-11-25 19:00:00 8.8 12 Este 19 Sudeste 0 -- -- 77
2020-11-25 18:00:00 8.9 18 Sudeste 46 Sudeste 0.2 -- -- 80
2020-11-25 17:00:00 10.2 34 Sudeste 53 Sudeste 0 -- -- 65
2020-11-25 16:00:00 10.6 35 Sur 50 Sur 0 -- -- 64
2020-11-25 15:00:00 11.8 37 Sur 53 Sur 0 -- -- 60
2020-11-25 14:00:00 12.1 39 Sudeste 51 Sudeste 0 -- -- 60
2020-11-25 13:00:00 12.1 37 Sur 48 Sudeste 0 -- -- 60
2020-11-25 12:00:00 11.9 29 Sudeste 41 Sudeste 0 -- -- 63
2020-11-25 11:00:00 9.6 24 Sudeste 41 Sudeste 0 -- -- 72
2020-11-25 10:00:00 5.1 15 Sudeste 26 Sudeste 0 -- -- 82
2020-11-25 09:00:00 2.1 19 Sudeste 25 Sudeste 0 -- -- 85
2020-11-25 08:00:00 3 12 Sudeste 22 Sudeste 0 -- -- 87
2020-11-25 07:00:00 2.7 16 Sudeste 28 Sudeste 0 -- -- 87
2020-11-25 06:00:00 1.7 14 Sudeste 19 Sudeste 0 -- -- 89
2020-11-25 05:00:00 2 4 Sudeste 17 Sudeste 0 -- -- 88
2020-11-25 04:00:00 1.7 14 Sudeste 22 Sur 0 -- -- 89
2020-11-25 03:00:00 4.5 18 Sur 25 Sur 0 -- -- 84
2020-11-25 02:00:00 1.7 10 Sudeste 15 Sudeste 0 -- -- 91
2020-11-25 01:00:00 2.6 6 Sudeste 9 Sudeste 0 -- -- 88
2020-11-25 00:00:00 6.4 7 Sudoeste 16 Sur 0 -- -- 83
2020-11-24 23:00:00 7.1 10 Sudoeste 16 Sur 0 -- -- 77
2020-11-24 22:00:00 7.5 13 Sur 18 Sudoeste 0 -- -- 76
2020-11-24 21:00:00 7.7 14 Sur 18 Sur 0 -- -- 77
2020-11-24 20:00:00 6.2 5 Sur 7 Sur 0 -- -- 81
2020-11-24 19:00:00 7.6 0 Calma 3 Sudeste 0 -- -- 78
2020-11-24 18:00:00 9.6 2 Oeste 12 Oeste 0 -- -- 68
2020-11-24 17:00:00 11.2 9 Oeste 15 Oeste 0 -- -- 64
2020-11-24 16:00:00 12.2 10 Oeste 14 Oeste 0 -- -- 60
2020-11-24 15:00:00 12.7 8 Oeste 15 Oeste 0 -- -- 56
2020-11-24 14:00:00 12.5 10 Noroeste 20 Oeste 0 -- -- 57
2020-11-24 13:00:00 12.1 9 Oeste 15 Noroeste 0 -- -- 59
2020-11-24 12:00:00 12.1 5 Sudoeste 13 Sudoeste 0 -- -- 56
2020-11-24 11:00:00 11 9 Sudoeste 13 Sudoeste 0 -- -- 57
2020-11-24 10:00:00 8.6 8 Sur 17 Sudoeste 0 -- -- 66
2020-11-24 09:00:00 7.6 12 Sur 19 Sur 0 -- -- 65
2020-11-24 08:00:00 7 15 Sur 20 Sur 0 -- -- 68
2020-11-24 07:00:00 1.8 7 Sudeste 14 Este 0 -- -- 84
2020-11-24 06:00:00 1.1 10 Sudeste 13 Sudeste 0 -- -- 84
2020-11-24 05:00:00 3 8 Sudeste 13 Sudeste 0 -- -- 79
2020-11-24 04:00:00 1.7 7 Sudeste 16 Sudeste 0 -- -- 85
2020-11-24 03:00:00 3.4 13 Sudeste 21 Sudeste 0 -- -- 79
2020-11-24 02:00:00 3.1 15 Sudeste 18 Sudeste 0 -- -- 78
2020-11-24 01:00:00 2.7 10 Sudeste 13 Sudeste 0 -- -- 80
2020-11-24 00:00:00 3.1 4 Sur 8 Sudeste 0 -- -- 78
2020-11-23 23:00:00 3.5 6 Sudeste 9 Sudeste 0 -- -- 75
2020-11-23 22:00:00 5.4 3 Sudeste 6 Sudeste 0 -- -- 66
2020-11-23 21:00:00 5.8 3 Sur 5 Sudeste 0 -- -- 65
2020-11-23 20:00:00 8.5 0 Calma 5 Sudeste 0 -- -- 51
2020-11-23 19:00:00 9.2 3 Este 5 Nordeste 0 -- -- 51
2020-11-23 18:00:00 11.2 0 Calma 9 Noroeste 0 -- -- 41
2020-11-23 17:00:00 14.2 7 Noroeste 10 Norte 0 -- -- 33
2020-11-23 16:00:00 14.4 5 Norte 13 Norte 0 -- -- 39
2020-11-23 15:00:00 14.2 6 Norte 12 Norte 0 -- -- 35
2020-11-23 14:00:00 13 8 Noroeste 13 Noroeste 0 -- -- 46
2020-11-23 13:00:00 11.9 4 Oeste 11 Oeste 0 -- -- 60
2020-11-23 12:00:00 9.9 2 Oeste 5 Noroeste 0 -- -- 69
2020-11-23 11:00:00 8.4 2 Noroeste 11 Sudeste 0 -- -- 74
2020-11-23 10:00:00 5.2 12 Sudeste 17 Sudeste 0 -- -- 79
2020-11-23 09:00:00 1.3 10 Sudeste 12 Sudeste 0 -- -- 87
2020-11-23 08:00:00 0.9 8 Sudeste 9 Sudeste 0 -- -- 86
2020-11-23 07:00:00 0.8 6 Sudeste 14 Sudeste 0 -- -- 85
2020-11-23 06:00:00 1.4 11 Sudeste 14 Sudeste 0 -- -- 86
2020-11-23 05:00:00 1.4 10 Sudeste 13 Sudeste 0 -- -- 86
2020-11-23 04:00:00 2 6 Sudeste 15 Sudeste 0 -- -- 84
2020-11-23 03:00:00 2.5 14 Sudeste 22 Sudeste 0 -- -- 83
2020-11-23 02:00:00 3.6 13 Sudeste 17 Sudeste 0 -- -- 80
2020-11-23 01:00:00 3.3 15 Sudeste 17 Sudeste 0 -- -- 82
2020-11-23 00:00:00 3.3 13 Sudeste 14 Sudeste 0 -- -- 84
2020-11-22 23:00:00 4.3 9 Sudeste 14 Sudeste 0 -- -- 80
2020-11-22 22:00:00 4.8 12 Sudeste 13 Sudeste 0 -- -- 78
2020-11-22 21:00:00 5.9 4 Sudeste 5 Sudeste 0 -- -- 71
2020-11-22 20:00:00 7.4 0 Calma 4 Norte 0 -- -- 67
2020-11-22 19:00:00 9.1 0 Calma 5 Noroeste 0 -- -- 62
2020-11-22 18:00:00 12.7 3 Noroeste 9 Oeste 0 -- -- 51
2020-11-22 17:00:00 14.3 5 Oeste 12 Oeste 0 -- -- 45
2020-11-22 16:00:00 14.6 8 Oeste 15 Oeste 0 -- -- 45
2020-11-22 15:00:00 14.5 8 Oeste 17 Oeste 0 -- -- 47
2020-11-22 14:00:00 14 12 Oeste 17 Oeste 0 -- -- 46
2020-11-22 13:00:00 13.5 9 Oeste 15 Oeste 0 -- -- 49
2020-11-22 12:00:00 12.3 8 Sudoeste 13 Sudoeste 0 -- -- 57
2020-11-22 11:00:00 9.9 10 Sudoeste 15 Sudoeste 0 -- -- 65
2020-11-22 10:00:00 6.7 6 Sudeste 12 Sudeste 0 -- -- 77
2020-11-22 09:00:00 2.8 8 Sudeste 10 Este 0 -- -- 78
2020-11-22 08:00:00 1.4 8 Sudeste 15 Sudeste 0 -- -- 82
2020-11-22 07:00:00 2.3 13 Sudeste 18 Sudeste 0 -- -- 77
2020-11-22 06:00:00 3.3 9 Sudeste 18 Sudeste 0 -- -- 74
2020-11-22 05:00:00 2.4 10 Sudeste 17 Sudeste 0 -- -- 76
2020-11-22 04:00:00 3.5 9 Sudeste 21 Sudeste 0 -- -- 76
2020-11-22 03:00:00 2.8 8 Sudeste 16 Sudeste 0 -- -- 79
2020-11-22 02:00:00 3 10 Este 19 Sudeste 0 -- -- 79
2020-11-22 01:00:00 2.9 12 Sudeste 14 Sudeste 0 -- -- 84
2020-11-22 00:00:00 2.5 9 Sudeste 12 Este 0 -- -- 84
2020-11-21 23:00:00 4.1 8 Sudeste 14 Sudeste 0 -- -- 81
2020-11-21 22:00:00 4.7 5 Sudeste 10 Este 0 -- -- 75
2020-11-21 21:00:00 7.9 4 Sudoeste 6 Oeste 0 -- -- 64
2020-11-21 20:00:00 8.8 6 Oeste 10 Sudoeste 0 -- -- 62
2020-11-21 19:00:00 9.6 0 Calma 2 Noroeste 0 -- -- 61
2020-11-21 18:00:00 12.9 2 Norte 6 Oeste 0 -- -- 49
2020-11-21 17:00:00 15.1 3 Noroeste 5 Noroeste 0 -- -- 45
2020-11-21 16:00:00 14.7 4 Nordeste 8 Nordeste 0 -- -- 39
2020-11-21 15:00:00 14.7 5 Sudoeste 8 Oeste 0 -- -- 45
2020-11-21 14:00:00 13.2 0 Calma 7 Nordeste 0 -- -- 51
2020-11-21 13:00:00 10.9 4 Noroeste 7 Oeste 0 -- -- 64
2020-11-21 12:00:00 8.6 8 Oeste 12 Oeste 0 -- -- 74
2020-11-21 11:00:00 6.3 3 Sudoeste 6 Oeste 0 -- -- 84
2020-11-21 10:00:00 3.2 0 Calma 4 Oeste 0 -- -- 91
2020-11-21 09:00:00 1 0 Calma 2 Oeste 0 -- -- 93
2020-11-21 08:00:00 -0.7 0 Calma 8 Sudeste 0 -- -- 94
2020-11-21 07:00:00 -0.2 4 Sudeste 7 Sudeste 0 -- -- 91
2020-11-21 06:00:00 1 2 Sur 9 Sudeste 0 -- -- 93
2020-11-21 05:00:00 0.7 0 Calma 8 Sudeste 0 -- -- 92
2020-11-21 04:00:00 1.7 0 Calma 17 Sudeste 0 -- -- 91
2020-11-21 03:00:00 1.5 14 Sudeste 22 Sudeste 0 -- -- 91
2020-11-21 02:00:00 2.1 2 Este 5 Nordeste 0 -- -- 91
2020-11-21 01:00:00 2 4 Nordeste 5 Nordeste 0 -- -- 91
2020-11-21 00:00:00 3 0 Calma 13 Sudeste 0 -- -- 85
2020-11-20 23:00:00 4.6 8 Sudeste 18 Sudeste 0 -- -- 81
2020-11-20 22:00:00 4.1 10 Este 13 Este 0 -- -- 83
2020-11-20 21:00:00 5.2 8 Nordeste 10 Nordeste 0 -- -- 78
2020-11-20 20:00:00 6.3 7 Nordeste 14 Norte 0 -- -- 75
2020-11-20 19:00:00 8.2 0 Calma 10 Norte 0 -- -- 71
2020-11-20 18:00:00 10.7 0 Calma 4 Nordeste 0 -- -- 60
2020-11-20 17:00:00 11.9 0 Calma 13 Norte 0 -- -- 57
2020-11-20 16:00:00 11.8 9 Norte 17 Norte 0 -- -- 55
2020-11-20 15:00:00 11 8 Norte 13 Norte 0 -- -- 62
2020-11-20 14:00:00 10.1 3 Norte 8 Nordeste 0 -- -- 68
2020-11-20 13:00:00 9.2 2 Sur 6 Este 0 -- -- 73
2020-11-20 12:00:00 6.4 0 Calma 7 Noroeste 0 -- -- 87
2020-11-20 11:00:00 5.4 0 Calma 7 Norte 0 -- -- 90
2020-11-20 10:00:00 5 4 Este 6 Este 0 -- -- 91
2020-11-20 09:00:00 3 0 Calma 6 Sudoeste 0 -- -- 96
2020-11-20 08:00:00 2.3 5 Sudoeste 7 Sudoeste 0 -- -- 94
2020-11-20 07:00:00 2.9 0 Calma 6 Sudoeste 0 -- -- 94
2020-11-20 06:00:00 3 4 Oeste 6 Noroeste 0 -- -- 94
2020-11-20 05:00:00 3.6 2 Oeste 4 Norte 0 -- -- 91
2020-11-20 04:00:00 3.7 3 Este 13 Nordeste 0 -- -- 92
2020-11-20 03:00:00 4.2 8 Nordeste 15 Nordeste 0 -- -- 91
2020-11-20 02:00:00 5.8 9 Nordeste 15 Nordeste 0 -- -- 90
2020-11-20 01:00:00 5.7 6 Nordeste 12 Nordeste 0 -- -- 90
2020-11-20 00:00:00 6.6 2 Este 12 Nordeste 0 -- -- 91
2020-11-19 23:00:00 7.4 6 Nordeste 17 Nordeste 0 -- -- 89
2020-11-19 22:00:00 8.3 12 Nordeste 15 Nordeste 0 -- -- 90
2020-11-19 21:00:00 9.3 10 Nordeste 19 Nordeste 0 -- -- 87
2020-11-19 20:00:00 10.6 13 Nordeste 21 Nordeste 0 -- -- 84
2020-11-19 19:00:00 12.2 12 Nordeste 18 Nordeste 0 -- -- 77
2020-11-19 18:00:00 14.6 9 Norte 15 Norte 0 -- -- 69
2020-11-19 17:00:00 17 16 Norte 20 Norte 0 -- -- 62
2020-11-19 16:00:00 17.8 8 Norte 21 Norte 0 -- -- 55
2020-11-19 15:00:00 17.8 14 Norte 22 Norte 0 -- -- 59
2020-11-19 14:00:00 16.6 9 Norte 14 Norte 0 -- -- 64
2020-11-19 13:00:00 15.3 6 Norte 12 Nordeste 0 -- -- 66
2020-11-19 12:00:00 13.6 3 Nordeste 8 Nordeste 0 -- -- 73
2020-11-19 11:00:00 10.2 4 Noroeste 9 Noroeste 0 -- -- 78
2020-11-19 10:00:00 9 0 Calma 5 Noroeste 0 -- -- 79
2020-11-19 09:00:00 6 3 Oeste 5 Noroeste 0 -- -- 85
2020-11-19 08:00:00 4.8 3 Este 10 Sudeste 0 -- -- 90
2020-11-19 07:00:00 5.1 6 Sudeste 14 Sudeste 0 -- -- 86
2020-11-19 06:00:00 5.2 7 Sudeste 14 Sudeste 0 -- -- 88
2020-11-19 05:00:00 5.7 9 Sudeste 10 Sudeste 0 -- -- 87
2020-11-19 04:00:00 6.7 8 Sudeste 12 Sudeste 0 -- -- 82
2020-11-19 03:00:00 6.9 2 Sur 12 Sudeste 0 -- -- 82
2020-11-19 02:00:00 7.7 10 Sudeste 16 Sudeste 0 -- -- 79
2020-11-19 01:00:00 7.8 14 Sudeste 18 Sudeste 0 -- -- 79
2020-11-19 00:00:00 9.2 15 Sudeste 20 Sudeste 0 -- -- 74
2020-11-18 23:00:00 9.7 14 Sudeste 18 Sudeste 0 -- -- 75
2020-11-18 22:00:00 10.1 9 Sudeste 12 Sudeste 0 -- -- 77
2020-11-18 21:00:00 12.8 2 Este 6 Norte 0 -- -- 67
2020-11-18 20:00:00 13.8 2 Este 4 Este 0 -- -- 65
2020-11-18 19:00:00 13.9 3 Este 4 Sudeste 0 -- -- 60
2020-11-18 18:00:00 17.4 2 Oeste 6 Oeste 0 -- -- 50
2020-11-18 17:00:00 20 6 Oeste 10 Oeste 0 -- -- 41
2020-11-18 16:00:00 20.9 9 Oeste 13 Oeste 0 -- -- 38
2020-11-18 15:00:00 20.9 4 Noroeste 9 Oeste 0 -- -- 38
2020-11-18 14:00:00 19.8 3 Noroeste 13 Oeste 0 -- -- 41
2020-11-18 13:00:00 20.2 3 Sudeste 6 Sudeste 0 -- -- 44
2020-11-18 12:00:00 17.9 4 Este 9 Este 0 -- -- 51
2020-11-18 11:00:00 14.8 8 Sudeste 14 Sudeste 0 -- -- 61
2020-11-18 10:00:00 11.2 13 Sudeste 17 Sudeste 0 -- -- 69
2020-11-18 09:00:00 7.4 16 Sudeste 18 Sudeste 0 -- -- 78
2020-11-18 08:00:00 6.4 12 Sudeste 16 Sudeste 0 -- -- 78
2020-11-18 07:00:00 6 14 Sudeste 21 Sudeste 0 -- -- 81
2020-11-18 06:00:00 6.9 15 Sudeste 17 Sudeste 0 -- -- 77
2020-11-18 05:00:00 6.9 7 Sudeste 13 Sudeste 0 -- -- 77
2020-11-18 04:00:00 9 10 Sudeste 19 Sudoeste 0 -- -- 71
2020-11-18 03:00:00 13.3 15 Sudoeste 20 Sudoeste 0 -- -- 59
2020-11-18 02:00:00 8.4 8 Sudeste 17 Sudeste 0 -- -- 74
2020-11-18 01:00:00 9.5 13 Sudeste 20 Sudeste 0 -- -- 70
2020-11-18 00:00:00 9.3 19 Sudeste 21 Sudeste 0 -- -- 71
2020-11-17 23:00:00 10.2 14 Sudeste 20 Sudeste 0 -- -- 67
2020-11-17 22:00:00 9.9 14 Sudeste 16 Sudeste 0 -- -- 69
2020-11-17 21:00:00 10.4 6 Sudeste 19 Este 0 -- -- 69
2020-11-17 20:00:00 11.1 8 Sudeste 9 Sudeste 0 -- -- 66
2020-11-17 19:00:00 12.5 3 Sudeste 5 Sudeste 0 -- -- 60
2020-11-17 18:00:00 17.2 0 Calma 2 Nordeste 0 -- -- 41
2020-11-17 17:00:00 19.7 2 Noroeste 6 Oeste 0 -- -- 36
2020-11-17 16:00:00 20.1 3 Oeste 10 Sur 0 -- -- 37
2020-11-17 15:00:00 19.1 4 Oeste 8 Sudoeste 0 -- -- 30
2020-11-17 14:00:00 17.9 3 Oeste 8 Sudeste 0 -- -- 48
2020-11-17 13:00:00 16.7 7 Sudeste 12 Sudeste 0 -- -- 58
2020-11-17 12:00:00 14.5 5 Este 10 Este 0 -- -- 65
2020-11-17 11:00:00 12.4 2 Este 4 Sudeste 0 -- -- 75
2020-11-17 10:00:00 8.5 5 Sudeste 15 Sudeste 0 -- -- 85
2020-11-17 09:00:00 5.1 9 Sudeste 15 Sudeste 0 -- -- 90
2020-11-17 08:00:00 4 2 Sudeste 19 Sudeste 0 -- -- 88
2020-11-17 07:00:00 4.3 13 Sudeste 19 Sudeste 0 -- -- 90
2020-11-17 06:00:00 4.6 12 Sudeste 13 Sudeste 0 -- -- 92
2020-11-17 05:00:00 4.5 5 Sudeste 16 Sudeste 0 -- -- 90
2020-11-17 04:00:00 5.4 13 Sudeste 17 Sudeste 0 -- -- 91
2020-11-17 03:00:00 5.2 13 Sudeste 19 Sudeste 0 -- -- 95
2020-11-17 02:00:00 6.2 11 Sudeste 15 Sudeste 0 -- -- 93
2020-11-17 01:00:00 6.4 13 Sudeste 15 Sudeste 0 -- -- 94
2020-11-17 00:00:00 7.1 9 Sudeste 10 Sudeste 0 -- -- 94
2020-11-16 23:00:00 7.7 9 Sudeste 13 Sudeste 0 -- -- 94
2020-11-16 22:00:00 7.8 7 Sudeste 8 Sudeste 0 -- -- 90
2020-11-16 21:00:00 9.3 0 Calma 2 Este 0 -- -- 89
2020-11-16 20:00:00 9.9 0 Calma 4 Norte 0 -- -- 87
2020-11-16 19:00:00 11.7 2 Norte 6 Noroeste 0 -- -- 81
2020-11-16 18:00:00 13 4 Noroeste 10 Noroeste 0 -- -- 78
2020-11-16 17:00:00 14.5 7 Noroeste 13 Oeste 0 -- -- 70
2020-11-16 16:00:00 15 8 Oeste 18 Oeste 0 -- -- 69
2020-11-16 15:00:00 14.7 9 Oeste 15 Oeste 0 -- -- 71
2020-11-16 14:00:00 14.6 3 Noroeste 15 Oeste 0 -- -- 72
2020-11-16 13:00:00 14.3 8 Oeste 20 Oeste 0 -- -- 76
2020-11-16 12:00:00 13.2 6 Oeste 12 Oeste 0 -- -- 87
2020-11-16 11:00:00 12.8 2 Noroeste 6 Oeste 0 -- -- 91
2020-11-16 10:00:00 12 2 Oeste 13 Noroeste 0 -- -- 97
2020-11-16 09:00:00 11.6 7 Oeste 12 Oeste 0 -- -- 97
2020-11-16 08:00:00 11.9 6 Oeste 14 Oeste 0 -- -- 97
2020-11-16 07:00:00 12.2 8 Oeste 11 Oeste 0 -- -- 97
2020-11-16 06:00:00 12.2 7 Oeste 13 Oeste 0 -- -- 97
2020-11-16 05:00:00 12.3 5 Oeste 14 Sudoeste 0 -- -- 97
2020-11-16 04:00:00 12.4 9 Sudoeste 21 Oeste 0 -- -- 96
2020-11-16 03:00:00 12.6 15 Oeste 27 Sudoeste 0.2 -- -- 95
2020-11-16 02:00:00 13.2 12 Sudoeste 19 Sudoeste 0 -- -- 91
2020-11-16 01:00:00 13.5 14 Sudoeste 19 Sudoeste 0 -- -- 89
2020-11-16 00:00:00 13.7 13 Sudoeste 21 Sudoeste 0 -- -- 89
2020-11-15 23:00:00 13.8 12 Sudoeste 21 Sudoeste 0 -- -- 88
2020-11-15 22:00:00 13.9 16 Sudoeste 22 Sudoeste 0 -- -- 87
2020-11-15 21:00:00 13.7 11 Sudoeste 30 Sudoeste 0 -- -- 86
2020-11-15 20:00:00 14.3 19 Sudoeste 34 Sudoeste 0 -- -- 84
2020-11-15 19:00:00 14.6 13 Sudoeste 27 Sudoeste 0 -- -- 82
2020-11-15 18:00:00 15.2 19 Sudoeste 34 Sudoeste 0 -- -- 78
2020-11-15 17:00:00 16.1 21 Sudoeste 40 Sudoeste 0 -- -- 74
2020-11-15 16:00:00 16.7 31 Sudoeste 48 Sudoeste 0 -- -- 72
2020-11-15 15:00:00 17.1 31 Sudoeste 50 Sudoeste 0 -- -- 72
2020-11-15 14:00:00 16.8 35 Sudoeste 51 Sudoeste 0 -- -- 72
2020-11-15 13:00:00 17 33 Sudoeste 49 Sudoeste 0 -- -- 73
2020-11-15 12:00:00 16.7 27 Sudoeste 41 Sudoeste 0 -- -- 74
2020-11-15 11:00:00 16 20 Sudoeste 33 Sudoeste 0 -- -- 77
2020-11-15 10:00:00 14.8 14 Sur 28 Sur 0 -- -- 78
2020-11-15 09:00:00 12.5 15 Sur 26 Sur 0 -- -- 82
2020-11-15 08:00:00 11.9 13 Sur 24 Sudoeste 0 -- -- 82
2020-11-15 07:00:00 12.7 17 Sur 26 Sur 0 -- -- 78
2020-11-15 06:00:00 12.2 17 Sur 23 Sur 0 -- -- 80
2020-11-15 05:00:00 11.6 14 Sur 21 Sudeste 0 -- -- 82
2020-11-15 04:00:00 11.3 18 Sudeste 22 Sudeste 0 -- -- 84
2020-11-15 03:00:00 12.4 13 Sur 27 Sur 0 -- -- 81
2020-11-15 02:00:00 12.1 18 Sur 26 Sur 0 -- -- 81
2020-11-15 01:00:00 10.8 17 Sur 21 Sur 0 -- -- 87
2020-11-15 00:00:00 11.1 15 Sur 23 Sur 0 -- -- 86
2020-11-14 23:00:00 11.9 12 Sudoeste 22 Sur 0 -- -- 87
2020-11-14 22:00:00 12.1 12 Sur 19 Sur 0 -- -- 88
2020-11-14 21:00:00 12.5 9 Sudoeste 18 Sur 0 -- -- 90
2020-11-14 20:00:00 12.3 12 Sur 18 Sur 0.2 -- -- 91
2020-11-14 19:00:00 12.9 9 Sur 15 Sur 0.2 -- -- 86
2020-11-14 18:00:00 14.6 0 Calma 6 Oeste 0 -- -- 73
2020-11-14 17:00:00 15.3 6 Sudoeste 14 Sudoeste 0 -- -- 69
2020-11-14 16:00:00 15.7 11 Sudoeste 24 Sudoeste 0 -- -- 64
2020-11-14 15:00:00 16.3 10 Sur 17 Sur 0 -- -- 65
2020-11-14 14:00:00 14.5 12 Sur 19 Sudeste 0 -- -- 72
2020-11-14 13:00:00 13.7 13 Sur 28 Sudeste 0 -- -- 77
2020-11-14 12:00:00 13.6 21 Sur 30 Sur 0 -- -- 79
2020-11-14 11:00:00 12.2 15 Sudeste 21 Sur 0 -- -- 81
2020-11-14 10:00:00 10.4 13 Sudeste 21 Sudeste 0 -- -- 84
2020-11-14 09:00:00 10.8 18 Sudeste 24 Sudeste 0 -- -- 83
2020-11-14 08:00:00 8.9 13 Sudeste 17 Sudeste 0 -- -- 87
2020-11-14 07:00:00 8.3 10 Sudeste 13 Sudeste 0 -- -- 86
2020-11-14 06:00:00 8.7 7 Sudeste 9 Sudeste 0 -- -- 85
2020-11-14 05:00:00 9.1 2 Sudeste 8 Sudeste 0 -- -- 85
2020-11-14 04:00:00 9.5 6 Este 10 Sudoeste 0 -- -- 83
2020-11-14 03:00:00 10.9 9 Sudoeste 17 Sur 0 -- -- 73
2020-11-14 02:00:00 10.8 10 Sur 17 Sur 0 -- -- 75
2020-11-14 01:00:00 10.5 10 Sudoeste 15 Sudoeste 0 -- -- 77
2020-11-14 00:00:00 9.9 9 Sudoeste 15 Sudeste 0 -- -- 78
2020-11-13 23:00:00 9.4 13 Sudeste 19 Sudeste 0 -- -- 84
2020-11-13 22:00:00 9.4 6 Sur 9 Sur 0 -- -- 83
2020-11-13 21:00:00 9.6 4 Sudeste 5 Sudeste 0 -- -- 86
2020-11-13 20:00:00 10.4 2 Sur 9 Oeste 0 -- -- 81
2020-11-13 19:00:00 11.3 9 Oeste 15 Oeste 0 -- -- 75
2020-11-13 18:00:00 12.6 4 Sudoeste 6 Oeste 0 -- -- 63
2020-11-13 17:00:00 14.1 0 Calma 14 Este 0 -- -- 62
2020-11-13 16:00:00 14.5 8 Este 13 Sudeste 0 -- -- 58
2020-11-13 15:00:00 14.9 3 Este 8 Sudeste 0 -- -- 59
2020-11-13 14:00:00 13.3 0 Calma 5 Sudeste 0 -- -- 66
2020-11-13 13:00:00 12.6 5 Sudeste 12 Sudeste 0 -- -- 67
2020-11-13 12:00:00 12.7 10 Sudeste 15 Sudeste 0 -- -- 72
2020-11-13 11:00:00 9.9 10 Sudeste 13 Sudeste 0 -- -- 86
2020-11-13 10:00:00 9 6 Sudeste 9 Este 0 -- -- 90
2020-11-13 09:00:00 6.3 4 Sudeste 6 Sudeste 0 -- -- 93
2020-11-13 08:00:00 5.7 3 Sudeste 7 Sudeste 0 -- -- 93
2020-11-13 07:00:00 6.8 0 Calma 2 Oeste 0 -- -- 88
2020-11-13 06:00:00 7.6 0 Calma 8 Sudeste 0 -- -- 86
2020-11-13 05:00:00 7 7 Sudeste 12 Sudeste 0 -- -- 89
2020-11-13 04:00:00 7.5 2 Sudeste 15 Sudeste 0 -- -- 88
2020-11-13 03:00:00 7.9 11 Sudeste 17 Sudeste 0 -- -- 89
2020-11-13 02:00:00 7.9 7 Este 8 Este 0 -- -- 84
2020-11-13 01:00:00 8.2 0 Calma 11 Sudeste 0 -- -- 83
2020-11-13 00:00:00 9 6 Sudeste 12 Sudeste 0 -- -- 77
2020-11-12 23:00:00 10.1 0 Calma 10 Sudoeste 0 -- -- 71
2020-11-12 22:00:00 10.7 12 Sudoeste 17 Sudoeste 0 -- -- 69
2020-11-12 21:00:00 11.3 6 Sudoeste 8 Sudoeste 0 -- -- 75
2020-11-12 20:00:00 10.9 2 Sudeste 5 Sudeste 0 -- -- 80
2020-11-12 19:00:00 11.8 3 Este 6 Norte 0 -- -- 78
2020-11-12 18:00:00 12.6 5 Norte 9 Norte 0 -- -- 73
2020-11-12 17:00:00 13.7 5 Nordeste 8 Nordeste 0 -- -- 69
2020-11-12 16:00:00 14.5 3 Norte 10 Nordeste 0 -- -- 65
2020-11-12 15:00:00 14.6 6 Nordeste 13 Este 0 -- -- 62
2020-11-12 14:00:00 14.1 4 Este 12 Nordeste 0 -- -- 66
2020-11-12 13:00:00 13.4 6 Nordeste 12 Norte 0 -- -- 71
2020-11-12 12:00:00 12.5 4 Norte 7 Nordeste 0 -- -- 75
2020-11-12 11:00:00 10.3 0 Calma 10 Sudeste 0 -- -- 88
2020-11-12 10:00:00 7.9 9 Sudeste 12 Sudeste 0 -- -- 87
2020-11-12 09:00:00 6.4 6 Sudeste 13 Sudeste 0 -- -- 90
2020-11-12 08:00:00 6.3 11 Sudeste 15 Sudeste 0 -- -- 90
2020-11-12 07:00:00 6.6 12 Sudeste 18 Sudeste 0 -- -- 90
2020-11-12 06:00:00 6.9 7 Sudeste 10 Sudeste 0 -- -- 91
2020-11-12 05:00:00 7.5 7 Sudeste 12 Sudeste 0 -- -- 89
2020-11-12 04:00:00 7.1 11 Sudeste 13 Sudeste 0 -- -- 89
2020-11-12 03:00:00 8.3 10 Sudeste 17 Sudeste 0 -- -- 84
2020-11-12 02:00:00 7.9 15 Sudeste 18 Sudeste 0 -- -- 86
2020-11-12 01:00:00 7.5 14 Sudeste 19 Sudeste 0 -- -- 87
2020-11-12 00:00:00 7.4 11 Sudeste 18 Sudeste 0 -- -- 87
2020-11-11 23:00:00 7.8 13 Sudeste 24 Sudeste 0 -- -- 85
2020-11-11 22:00:00 8.6 17 Sudeste 20 Sudeste 0 -- -- 86
2020-11-11 21:00:00 7.8 9 Sudeste 12 Sudeste 0 -- -- 90
2020-11-11 20:00:00 8.4 7 Sudeste 12 Sudeste 0 -- -- 89
2020-11-11 19:00:00 9 8 Sudeste 11 Este 0 -- -- 87
2020-11-11 18:00:00 11 6 Noroeste 9 Noroeste 0 -- -- 81
2020-11-11 17:00:00 12.6 7 Noroeste 14 Noroeste 0 -- -- 72
2020-11-11 16:00:00 12.9 8 Noroeste 17 Oeste 0 -- -- 69
2020-11-11 15:00:00 12.9 14 Oeste 26 Oeste 0 -- -- 80
2020-11-11 14:00:00 14.1 10 Oeste 20 Oeste 0 -- -- 75
2020-11-11 13:00:00 11.6 2 Oeste 9 Oeste 0 -- -- 97
2020-11-11 12:00:00 8.5 3 Noroeste 6 Noroeste 0 -- -- 100
2020-11-11 11:00:00 6.7 3 Norte 9 Noroeste 0 -- -- 99
2020-11-11 10:00:00 5.3 5 Sudeste 10 Sudeste 0 -- -- 100
2020-11-11 09:00:00 3.8 4 Este 5 Este 0 -- -- 99
2020-11-11 08:00:00 4.2 2 Nordeste 6 Norte 0 -- -- 99
2020-11-11 07:00:00 4.6 0 Calma 6 Este 0 -- -- 99
2020-11-11 06:00:00 4.5 3 Sudeste 5 Sudeste 0 -- -- 99
2020-11-11 05:00:00 5.1 3 Sur 9 Sudeste 0 -- -- 98
2020-11-11 04:00:00 5.8 9 Sudeste 12 Este 0 -- -- 98
2020-11-11 03:00:00 6 0 Calma 5 Sudeste 0 -- -- 98
2020-11-11 02:00:00 6.3 2 Sur 8 Sudeste 0 -- -- 98
2020-11-11 01:00:00 6.4 3 Sudeste 6 Este 0.2 -- -- 98
2020-11-11 00:00:00 6.4 2 Nordeste 4 Nordeste 0 -- -- 97
2020-11-10 23:00:00 6.3 0 Calma 5 Noroeste 0 -- -- 97
2020-11-10 22:00:00 6.5 2 Oeste 9 Oeste 0 -- -- 97
2020-11-10 21:00:00 7 5 Noroeste 11 Noroeste 0 -- -- 96
2020-11-10 20:00:00 8.1 3 Noroeste 5 Noroeste 0 -- -- 94
2020-11-10 19:00:00 8.8 4 Noroeste 5 Noroeste 0 -- -- 91
2020-11-10 18:00:00 10.1 5 Noroeste 13 Noroeste 0 -- -- 88
2020-11-10 17:00:00 11.9 9 Noroeste 14 Noroeste 0 -- -- 81
2020-11-10 16:00:00 12.8 7 Noroeste 12 Noroeste 0 -- -- 78
2020-11-10 15:00:00 12.3 5 Noroeste 12 Norte 0 -- -- 82
2020-11-10 14:00:00 10.6 5 Norte 10 Norte 0 -- -- 94
2020-11-10 13:00:00 9.5 4 Norte 7 Norte 0 -- -- 98
2020-11-10 12:00:00 8.8 3 Nordeste 8 Sudeste 0 -- -- 98
2020-11-10 11:00:00 8.2 6 Sudeste 11 Este 0 -- -- 98
2020-11-10 10:00:00 7.6 8 Este 10 Este 0 -- -- 98
2020-11-10 09:00:00 6.2 3 Sudeste 5 Nordeste 0 -- -- 97
2020-11-10 08:00:00 5.6 0 Calma 7 Sudoeste 0 -- -- 96
2020-11-10 07:00:00 6.9 6 Sudoeste 8 Sudoeste 0 -- -- 97
2020-11-10 06:00:00 6.1 6 Sur 9 Sudeste 0 -- -- 97
2020-11-10 05:00:00 5.2 9 Sudeste 13 Sudeste 0 -- -- 96
2020-11-10 04:00:00 5.2 8 Sudeste 13 Sudeste 0 -- -- 95
2020-11-10 03:00:00 5.5 9 Sudeste 12 Sudeste 0 -- -- 95
2020-11-10 02:00:00 6 7 Sudeste 12 Este 0 -- -- 95
2020-11-10 01:00:00 5.7 7 Sudeste 10 Sudeste 0 -- -- 94
2020-11-10 00:00:00 6.5 7 Sudeste 8 Sudeste 0 -- -- 92
2020-11-09 23:00:00 7.2 4 Sudeste 8 Sudeste 0 -- -- 91
2020-11-09 22:00:00 7.5 3 Sudeste 6 Sudeste 0 -- -- 90
2020-11-09 21:00:00 8.4 2 Sudeste 4 Sudeste 0 -- -- 87
2020-11-09 20:00:00 9.3 3 Sudeste 5 Noroeste 0 -- -- 85
2020-11-09 19:00:00 10.8 3 Noroeste 8 Noroeste 0 -- -- 78
2020-11-09 18:00:00 11.4 7 Noroeste 16 Oeste 0 -- -- 77
2020-11-09 17:00:00 12.9 13 Oeste 19 Oeste 0 -- -- 67
2020-11-09 16:00:00 14.5 13 Oeste 21 Oeste 0 -- -- 62
2020-11-09 15:00:00 13.8 12 Oeste 22 Sudoeste 0 -- -- 68
2020-11-09 14:00:00 13 13 Oeste 26 Oeste 0 -- -- 74
2020-11-09 13:00:00 13.5 15 Oeste 21 Oeste 0 -- -- 73
2020-11-09 12:00:00 12.3 14 Oeste 23 Oeste 0 -- -- 77
2020-11-09 11:00:00 11.2 11 Sudoeste 21 Oeste 0 -- -- 85
2020-11-09 10:00:00 10.9 10 Sudoeste 16 Sur 0 -- -- 88
2020-11-09 09:00:00 9.6 10 Sur 17 Sur 0 -- -- 91
2020-11-09 08:00:00 9.1 10 Sur 14 Sur 0 -- -- 93
2020-11-09 07:00:00 9.4 7 Oeste 16 Oeste 0 -- -- 92
2020-11-09 06:00:00 9.4 11 Sudoeste 15 Sur 0 -- -- 90
2020-11-09 05:00:00 9.9 11 Sudoeste 14 Sudoeste 0 -- -- 89
2020-11-09 04:00:00 9.6 4 Sudoeste 16 Sur 0 -- -- 91
2020-11-09 03:00:00 10.8 19 Sudeste 28 Sudeste 0 -- -- 85
2020-11-09 02:00:00 10.4 24 Sudeste 30 Sudeste 0.2 -- -- 87
2020-11-09 01:00:00 9.2 5 Sudeste 9 Sudeste 0 -- -- 89
2020-11-09 00:00:00 10.5 9 Sudeste 21 Sudeste 0 -- -- 82
2020-11-08 23:00:00 10.6 9 Sur 14 Sur 0.2 -- -- 85
2020-11-08 22:00:00 10.9 8 Oeste 25 Sur 0 -- -- 83
2020-11-08 21:00:00 11.3 19 Sur 26 Sur 0.2 -- -- 80
2020-11-08 20:00:00 12 17 Sur 34 Sudeste 0 -- -- 74
2020-11-08 19:00:00 11.7 24 Sudeste 39 Sudeste 0 -- -- 76
2020-11-08 18:00:00 12.4 32 Sur 41 Sur 0 -- -- 71
2020-11-08 17:00:00 13.1 28 Sudeste 45 Sur 0 -- -- 70
2020-11-08 16:00:00 14.8 28 Sur 40 Sur 0 -- -- 64
2020-11-08 15:00:00 15.2 26 Sudeste 47 Sur 0 -- -- 64
2020-11-08 14:00:00 13.6 35 Sur 51 Sur 0 -- -- 67
2020-11-08 13:00:00 14.4 38 Sur 54 Sur 0 -- -- 61
2020-11-08 12:00:00 13.8 33 Sur 52 Sudeste 0 -- -- 67
2020-11-08 11:00:00 12.3 38 Sudeste 57 Sudeste 0 -- -- 72
2020-11-08 10:00:00 11.5 33 Sur 46 Sur 0 -- -- 77
2020-11-08 09:00:00 10.5 24 Sur 38 Sur 0 -- -- 79
2020-11-08 08:00:00 9.7 23 Sur 35 Sur 0 -- -- 80
2020-11-08 07:00:00 9 24 Sudeste 36 Sudeste 0 -- -- 87
2020-11-08 06:00:00 7.3 24 Sudeste 30 Sudeste 0 -- -- 90
2020-11-08 05:00:00 6.4 23 Sudeste 26 Sudeste 0 -- -- 90
2020-11-08 04:00:00 6.9 23 Sudeste 27 Sudeste 0 -- -- 88
2020-11-08 03:00:00 7.3 21 Sudeste 32 Sudeste 0 -- -- 86
2020-11-08 02:00:00 7.4 20 Sudeste 24 Sudeste 0 -- -- 85
2020-11-08 01:00:00 7.6 19 Sudeste 26 Sudeste 0 -- -- 84
2020-11-08 00:00:00 8.3 19 Sudeste 26 Sudeste 0 -- -- 83
2020-11-07 23:00:00 8.8 18 Sur 28 Sur 0 -- -- 82
2020-11-07 22:00:00 9.2 18 Sur 25 Sur 0 -- -- 82
2020-11-07 21:00:00 9.6 13 Sur 20 Sur 0 -- -- 82
2020-11-07 20:00:00 9.9 13 Sur 19 Sur 0 -- -- 81
2020-11-07 19:00:00 10.6 13 Sudoeste 21 Sudoeste 0 -- -- 76
2020-11-07 18:00:00 12 13 Oeste 38 Oeste 0 -- -- 74
2020-11-07 17:00:00 13.6 26 Oeste 39 Oeste 0 -- -- 73
2020-11-07 16:00:00 13.9 26 Oeste 36 Sudoeste 0 -- -- 73
2020-11-07 15:00:00 12.8 19 Oeste 35 Oeste 0 -- -- 79
2020-11-07 14:00:00 12.7 19 Sudoeste 33 Sudoeste 0 -- -- 81
2020-11-07 13:00:00 11.6 17 Oeste 22 Sudoeste 0 -- -- 90
2020-11-07 12:00:00 11.4 11 Sudoeste 14 Sudoeste 0 -- -- 90
2020-11-07 11:00:00 10.7 8 Sudoeste 21 Sur 0.2 -- -- 92
2020-11-07 10:00:00 11.3 12 Sudoeste 25 Sur 0 -- -- 87
2020-11-07 09:00:00 11.1 22 Sur 37 Sur 0 -- -- 86
2020-11-07 08:00:00 11.2 26 Sur 37 Sudeste 0 -- -- 84
2020-11-07 07:00:00 10.5 23 Sudeste 33 Sudeste 0 -- -- 89
2020-11-07 06:00:00 11.3 21 Sudeste 37 Sudeste 0 -- -- 83
2020-11-07 05:00:00 11.9 11 Sudeste 23 Sudeste 0 -- -- 80
2020-11-07 04:00:00 12.2 19 Este 36 Sudeste 0 -- -- 76
2020-11-07 03:00:00 11.7 35 Sudeste 59 Sudeste 0 -- -- 79
2020-11-07 02:00:00 12.4 43 Sudeste 70 Sudeste 0 -- -- 75
2020-11-07 01:00:00 13.1 35 Sudeste 58 Sudeste 0 -- -- 77
2020-11-07 00:00:00 13.7 30 Sur 50 Sur 0.4 -- -- 79
2020-11-06 23:00:00 14 30 Sudeste 49 Sudeste 0 -- -- 77
2020-11-06 22:00:00 14 34 Sudeste 45 Sudeste 0 -- -- 81
2020-11-06 21:00:00 12.8 27 Sudeste 75 Sudeste 2.8 -- -- 82
2020-11-06 20:00:00 15.7 41 Sudeste 56 Sudeste 0 -- -- 70
2020-11-06 19:00:00 15.1 14 Este 38 Este 0 -- -- 69
2020-11-06 18:00:00 16.4 30 Sudeste 47 Sudeste 0 -- -- 65
2020-11-06 17:00:00 16.6 25 Sudeste 48 Sudeste 0 -- -- 68
2020-11-06 16:00:00 17.5 32 Sudeste 49 Sudeste 0 -- -- 65
2020-11-06 15:00:00 18.1 36 Sudeste 68 Sudeste 0 -- -- 61
2020-11-06 14:00:00 18 42 Sudeste 75 Sudeste 0 -- -- 59
2020-11-06 13:00:00 17.1 39 Sudeste 55 Sudeste 0 -- -- 61
2020-11-06 12:00:00 15.9 24 Este 40 Sudeste 0 -- -- 67
2020-11-06 11:00:00 15.3 32 Este 48 Este 0 -- -- 66
2020-11-06 10:00:00 13.3 21 Este 31 Este 0 -- -- 73
2020-11-06 09:00:00 11.6 12 Este 19 Este 0 -- -- 78
2020-11-06 08:00:00 11.9 17 Sudeste 42 Sudeste 0 -- -- 77
2020-11-06 07:00:00 12.7 23 Sudeste 37 Sudeste 0 -- -- 73
2020-11-06 06:00:00 12.1 24 Sudeste 49 Sudeste 0 -- -- 75
2020-11-06 05:00:00 12.6 42 Sudeste 54 Sudeste 0 -- -- 76
2020-11-06 04:00:00 12.1 27 Sudeste 43 Sudeste 0 -- -- 79
2020-11-06 03:00:00 11.8 23 Sudeste 37 Sudeste 0 -- -- 79
2020-11-06 02:00:00 11.2 12 Este 23 Sudeste 0 -- -- 81
2020-11-06 01:00:00 11.1 12 Sudeste 21 Sudeste 0 -- -- 83
2020-11-06 00:00:00 11.7 16 Sudeste 27 Sudeste 0 -- -- 81
2020-11-05 23:00:00 11.6 19 Sudeste 27 Sudeste 0 -- -- 79
2020-11-05 22:00:00 11.5 13 Sudeste 37 Sudeste 0 -- -- 81
2020-11-05 21:00:00 12.2 24 Sudeste 36 Este 0 -- -- 77
2020-11-05 20:00:00 10.9 15 Este 31 Este 0 -- -- 87
2020-11-05 19:00:00 11.3 25 Este 55 Este 0 -- -- 81
2020-11-05 18:00:00 12.2 26 Sudeste 39 Sudeste 0 -- -- 77
2020-11-05 17:00:00 12.7 18 Este 28 Este 0 -- -- 74
2020-11-05 16:00:00 13.4 19 Este 41 Este 0 -- -- 73
2020-11-05 15:00:00 13.6 22 Este 41 Este 0 -- -- 73
2020-11-05 14:00:00 13.4 17 Este 39 Este 0 -- -- 73
2020-11-05 13:00:00 13.4 29 Este 67 Este 0 -- -- 72
2020-11-05 12:00:00 13.4 43 Este 59 Este 0 -- -- 71
2020-11-05 11:00:00 13 30 Este 50 Este 0 -- -- 75
2020-11-05 10:00:00 11.2 32 Este 44 Este 0 -- -- 76
2020-11-05 09:00:00 9.6 22 Nordeste 30 Nordeste 0 -- -- 79
2020-11-05 08:00:00 7.9 11 Nordeste 28 Nordeste 0 -- -- 87
2020-11-05 07:00:00 7.8 20 Nordeste 33 Nordeste 0 -- -- 85
2020-11-05 06:00:00 8.5 27 Nordeste 34 Nordeste 0 -- -- 83
2020-11-05 05:00:00 8.7 24 Este 43 Nordeste 0 -- -- 82
2020-11-05 04:00:00 6.9 18 Nordeste 31 Nordeste 0 -- -- 89
2020-11-05 03:00:00 6.7 28 Nordeste 42 Nordeste 0 -- -- 89
2020-11-05 02:00:00 6.7 22 Nordeste 35 Nordeste 0 -- -- 90
2020-11-05 01:00:00 7.1 27 Nordeste 37 Nordeste 0 -- -- 85
2020-11-05 00:00:00 6.6 24 Nordeste 34 Nordeste 0 -- -- 87
2020-11-04 23:00:00 6.3 23 Nordeste 32 Nordeste 0 -- -- 89
2020-11-04 22:00:00 6 15 Nordeste 32 Nordeste 0 -- -- 89
2020-11-04 21:00:00 6.7 20 Nordeste 30 Nordeste 0 -- -- 88
2020-11-04 20:00:00 7.3 18 Nordeste 23 Nordeste 0 -- -- 91
2020-11-04 19:00:00 7.3 10 Nordeste 14 Nordeste 0 -- -- 93
2020-11-04 18:00:00 7.9 4 Norte 8 Norte 1.6 -- -- 89
2020-11-04 17:00:00 8.9 6 Nordeste 26 Nordeste 0.4 -- -- 78
2020-11-04 16:00:00 9.6 20 Nordeste 28 Nordeste 0 -- -- 70
2020-11-04 15:00:00 9.9 10 Norte 21 Nordeste 0 -- -- 68
2020-11-04 14:00:00 9.6 13 Nordeste 22 Nordeste 0 -- -- 67
2020-11-04 13:00:00 9 15 Nordeste 27 Nordeste 0 -- -- 66
2020-11-04 12:00:00 9.1 15 Nordeste 24 Nordeste 0 -- -- 65
2020-11-04 11:00:00 7.9 5 Norte 15 Nordeste 0 -- -- 77
2020-11-04 10:00:00 6.8 9 Nordeste 18 Norte 0 -- -- 80
2020-11-04 09:00:00 4.8 9 Nordeste 14 Nordeste 0 -- -- 88
2020-11-04 08:00:00 4.2 9 Norte 17 Norte 0 -- -- 89
2020-11-04 07:00:00 4.3 10 Norte 15 Norte 0 -- -- 90
2020-11-04 06:00:00 4.3 7 Norte 13 Norte 0 -- -- 90
2020-11-04 05:00:00 4.6 9 Norte 16 Norte 0 -- -- 91
2020-11-04 04:00:00 4.7 4 Noroeste 16 Norte 0 -- -- 92
2020-11-04 03:00:00 4.7 5 Norte 11 Norte -- -- -- 92
2020-11-04 02:00:00 4.4 8 Norte 17 Norte 0 -- -- 92
2020-11-04 01:00:00 5.3 11 Norte 17 Norte 0 -- -- 90
2020-11-04 00:00:00 5.5 8 Norte 16 Norte 0 -- -- 90
2020-11-03 23:00:00 6 10 Norte 21 Norte 0 -- -- 89
2020-11-03 22:00:00 6.5 15 Nordeste 27 Norte 0 -- -- 88
2020-11-03 21:00:00 7.4 18 Norte 30 Norte 0 -- -- 86
2020-11-03 20:00:00 8.3 7 Norte 25 Norte 0 -- -- 81
2020-11-03 19:00:00 9.3 11 Norte 20 Norte 0 -- -- 78
2020-11-03 18:00:00 10.3 12 Norte 25 Norte 0 -- -- 78
2020-11-03 17:00:00 10.9 17 Norte 23 Norte 0 -- -- 76
2020-11-03 16:00:00 11.2 16 Norte 22 Norte 0 -- -- 81
2020-11-03 15:00:00 11 13 Norte 19 Noroeste 0 -- -- 85
2020-11-03 14:00:00 10.4 8 Nordeste 19 Norte 0 -- -- 90
2020-11-03 13:00:00 9.6 13 Norte 21 Norte 0 -- -- 93
2020-11-03 12:00:00 9.4 15 Norte 22 Norte 0 -- -- 94
2020-11-03 11:00:00 9.3 10 Norte 15 Norte 0 -- -- 97
2020-11-03 10:00:00 9.1 11 Norte 20 Noroeste 0 -- -- 98
2020-11-03 09:00:00 9.5 13 Noroeste 19 Noroeste 0 -- -- 98
2020-11-03 08:00:00 10.1 10 Oeste 33 Oeste 0 -- -- 97
2020-11-03 07:00:00 10.8 8 Nordeste 27 Noroeste 0.4 -- -- 97
2020-11-03 06:00:00 12.2 13 Noroeste 19 Oeste 3.6 -- -- 96
2020-11-03 05:00:00 12.9 10 Oeste 17 Oeste 1 -- -- 95
2020-11-03 04:00:00 13.3 10 Sur 15 Sudoeste 0.6 -- -- 93
2020-11-03 03:00:00 13.8 12 Sudoeste 16 Sudoeste 0.2 -- -- 86
2020-11-03 02:00:00 14.6 9 Sudoeste 14 Sudoeste 0 -- -- 79
2020-11-03 01:00:00 14.6 10 Sur 13 Sur 0 -- -- 79
2020-11-03 00:00:00 14.2 10 Sur 12 Sur 0 -- -- 82
2020-11-02 23:00:00 13.4 9 Sur 12 Sur 0 -- -- 85
2020-11-02 22:00:00 14.5 10 Sudoeste 12 Sudoeste 0 -- -- 78
2020-11-02 21:00:00 14.8 9 Sur 10 Sur 0 -- -- 78
2020-11-02 20:00:00 14.1 4 Sur 5 Sur 0 -- -- 82
2020-11-02 19:00:00 14.8 0 Calma 3 Noroeste 0 -- -- 79
2020-11-02 18:00:00 15.3 3 Noroeste 9 Oeste 0 -- -- 78
2020-11-02 17:00:00 16.3 6 Oeste 9 Sudoeste 0 -- -- 73
2020-11-02 16:00:00 16.8 4 Sudoeste 10 Sur 0 -- -- 70
2020-11-02 15:00:00 16.9 3 Sur 13 Sudoeste 0 -- -- 71
2020-11-02 14:00:00 16.4 6 Sudoeste 11 Sudoeste 0 -- -- 72
2020-11-02 13:00:00 15.7 6 Sudoeste 17 Sudoeste 0 -- -- 77
2020-11-02 12:00:00 14.8 9 Sudoeste 14 Sudoeste 0 -- -- 82
2020-11-02 11:00:00 14.2 8 Sudoeste 13 Sudoeste 0 -- -- 89
2020-11-02 10:00:00 13.2 8 Sudoeste 14 Sur 0 -- -- 96
2020-11-02 09:00:00 12.4 10 Sur 13 Sur 0 -- -- 97
2020-11-02 08:00:00 12 7 Sur 10 Sudoeste 0 -- -- 96
2020-11-02 07:00:00 11.9 8 Sudoeste 14 Sudoeste 0 -- -- 94
2020-11-02 06:00:00 12.4 9 Sudoeste 13 Sudoeste 0 -- -- 90
2020-11-02 05:00:00 12.8 9 Sudoeste 13 Sudoeste 0 -- -- 87
2020-11-02 04:00:00 13 8 Sudoeste 12 Sudoeste 0 -- -- 87
2020-11-02 03:00:00 13.6 9 Sudoeste 13 Sudoeste 0 -- -- 84
2020-11-02 02:00:00 13.6 9 Sudoeste 13 Sudoeste 0 -- -- 83
2020-11-02 01:00:00 11.9 4 Sudeste 10 Sudeste 0 -- -- 87
2020-11-02 00:00:00 13.1 4 Sudeste 9 Sudoeste 0 -- -- 81
2020-11-01 23:00:00 13.5 7 Sudoeste 10 Sudoeste 0 -- -- 80
2020-11-01 22:00:00 12.6 7 Sudeste 15 Sudeste 0 -- -- 82
2020-11-01 21:00:00 13 6 Sudeste 8 Sudeste 0 -- -- 81
2020-11-01 20:00:00 14.7 0 Calma 3 Noroeste 0 -- -- 74
2020-11-01 19:00:00 17 3 Oeste 7 Oeste 0 -- -- 63
2020-11-01 18:00:00 18.4 0 Calma 15 Oeste 0 -- -- 59
2020-11-01 17:00:00 20 10 Oeste 17 Oeste 0 -- -- 50
2020-11-01 16:00:00 20.7 12 Oeste 19 Oeste 0 -- -- 49
2020-11-01 15:00:00 19.9 5 Sudoeste 12 Sudoeste 0 -- -- 55
2020-11-01 14:00:00 18.8 5 Sur 15 Oeste 0 -- -- 62
2020-11-01 13:00:00 17.5 7 Sur 13 Sur 0 -- -- 67
2020-11-01 12:00:00 16.1 4 Oeste 11 Oeste 0 -- -- 76
2020-11-01 11:00:00 15.3 8 Oeste 10 Oeste 0 -- -- 79
2020-11-01 10:00:00 14.2 5 Sudoeste 10 Sudeste 0 -- -- 80
2020-11-01 09:00:00 9 8 Sudeste 14 Sudeste 0 -- -- 91
2020-11-01 08:00:00 7.4 10 Sudeste 16 Sudeste 0 -- -- 93
2020-11-01 07:00:00 7.1 13 Sudeste 18 Sudeste 0 -- -- 93
2020-11-01 06:00:00 7.6 6 Sudeste 10 Sudeste 0 -- -- 91
2020-11-01 05:00:00 7.3 5 Sudeste 9 Sudeste 0 -- -- 92
2020-11-01 04:00:00 8.4 6 Sudeste 20 Sudeste 0 -- -- 90
2020-11-01 03:00:00 8.7 6 Sudeste 14 Sudeste 0 -- -- 89
2020-11-01 02:00:00 8.7 8 Sudeste 10 Sudeste 0 -- -- 89
2020-11-01 01:00:00 9.9 4 Sur 14 Sudoeste 0 -- -- 87
2020-11-01 00:00:00 10.9 9 Sudoeste 13 Sudoeste 0 -- -- 86
2020-10-31 23:00:00 10.2 7 Sudeste 12 Sudeste 0 -- -- 84
2020-10-31 22:00:00 11.4 9 Sudeste 13 Sudeste 0 -- -- 81
2020-10-31 21:00:00 11.8 2 Sudeste 5 Sudeste 0 -- -- 78
2020-10-31 20:00:00 12.9 0 Calma 2 Nordeste 0 -- -- 74
2020-10-31 19:00:00 15.9 0 Calma 4 Oeste 0 -- -- 64
2020-10-31 18:00:00 18.1 4 Oeste 11 Oeste 0 -- -- 59
2020-10-31 17:00:00 19.5 8 Oeste 17 Oeste 0 -- -- 53
2020-10-31 16:00:00 19.9 13 Oeste 20 Noroeste 0 -- -- 47
2020-10-31 15:00:00 19.6 13 Oeste 19 Oeste 0 -- -- 52
2020-10-31 14:00:00 19.9 6 Sudoeste 14 Sur 0 -- -- 52
2020-10-31 13:00:00 18.6 6 Sudoeste 14 Sudoeste 0 -- -- 55
2020-10-31 12:00:00 17.6 6 Este 15 Sudeste 0 -- -- 59
2020-10-31 11:00:00 16.1 10 Sudeste 14 Sudeste 0 -- -- 66
2020-10-31 10:00:00 13.8 6 Sudeste 9 Sudeste 0 -- -- 74
2020-10-31 09:00:00 10.1 2 Este 17 Sudeste 0 -- -- 81
2020-10-31 08:00:00 7.9 15 Sudeste 19 Sudeste 0 -- -- 82
2020-10-31 07:00:00 7.8 15 Sudeste 24 Sudeste 0 -- -- 85
2020-10-31 06:00:00 7.3 13 Sudeste 17 Sudeste 0 -- -- 89
2020-10-31 05:00:00 7.1 10 Sudeste 12 Sudeste 0 -- -- 89
2020-10-31 04:00:00 9.1 6 Sur 17 Sur 0 -- -- 82
2020-10-31 03:00:00 10.9 11 Sur 22 Sur 0 -- -- 79
2020-10-31 02:00:00 10.8 10 Sur 15 Sudeste 0 -- -- 83
2020-10-31 01:00:00 10.4 7 Sudeste 16 Sudeste 0 -- -- 81
2020-10-31 00:00:00 9.6 13 Sudeste 19 Sudeste 0 -- -- 86
2020-10-30 23:00:00 10.8 14 Sudeste 22 Sudeste 0 -- -- 80
2020-10-30 22:00:00 10.9 18 Sudeste 23 Sudeste 0 -- -- 82
2020-10-30 21:00:00 12.1 13 Sudeste 16 Sudeste 0 -- -- 78
2020-10-30 20:00:00 12.6 5 Este 8 Este 0 -- -- 79
2020-10-30 19:00:00 15.2 2 Este 7 Nordeste 0 -- -- 70
2020-10-30 18:00:00 17.1 6 Norte 13 Nordeste 0 -- -- 64
2020-10-30 17:00:00 19.9 0 Calma 8 Sudoeste 0 -- -- 49
2020-10-30 16:00:00 20 5 Oeste 11 Oeste 0 -- -- 51
2020-10-30 15:00:00 19.8 5 Oeste 16 Oeste 0 -- -- 52
2020-10-30 14:00:00 19 3 Sudoeste 13 Noroeste 0 -- -- 54
2020-10-30 13:00:00 18.2 4 Oeste 13 Oeste 0 -- -- 55
2020-10-30 12:00:00 18 5 Este 12 Sudeste 0 -- -- 54
2020-10-30 11:00:00 15.7 5 Sudeste 18 Sudeste 0 -- -- 62
2020-10-30 10:00:00 12.2 10 Sudeste 14 Sudeste 0 -- -- 68
2020-10-30 09:00:00 8.9 8 Sudeste 21 Sudeste 0 -- -- 78
2020-10-30 08:00:00 7.5 16 Sudeste 22 Sudeste 0 -- -- 74
2020-10-30 07:00:00 6.6 16 Sudeste 22 Sudeste 0 -- -- 80
2020-10-30 06:00:00 6.4 8 Sudeste 20 Sudeste 0 -- -- 82
2020-10-30 05:00:00 5.9 15 Sudeste 22 Sudeste 0 -- -- 85
2020-10-30 04:00:00 5.9 17 Sudeste 21 Sudeste 0 -- -- 87
2020-10-30 03:00:00 6.2 13 Sudeste 18 Sudeste 0 -- -- 90
2020-10-30 02:00:00 6.1 10 Sudeste 13 Sudeste 0 -- -- 91
2020-10-30 01:00:00 7.2 7 Sudeste 17 Sudeste 0 -- -- 89
2020-10-30 00:00:00 7.9 12 Sudeste 15 Sudeste 0 -- -- 92